Time;durP1;ratioP1;P1;durP2;ratioP2;P2;SDS_P1;SDS_P2;PMS_P1;PMS_P2;Temp;Humidity;BMP_temperature;BMP_pressure;BME280_temperature;BME280_humidity;BME280_pressure;Samples;Min_cycle;Max_cycle;Signal;HPM_P1;HPM_P2
2022/03/22 00:01:38;;;;;;;18.20;12.03;;;;;;;7.46;36.31;103133.16;4962413;28;20245;-49
2022/03/22 00:04:05;;;;;;;11.63;9.70;;;;;;;7.44;36.23;103140.03;4961181;28;20262;-49
2022/03/22 00:06:31;;;;;;;11.57;10.37;;;;;;;7.49;36.67;103132.41;4963761;28;20296;-49
2022/03/22 00:08:57;;;;;;;13.00;10.03;;;;;;;7.40;36.58;103140.66;4963117;28;20313;-50
2022/03/22 00:11:24;;;;;;;12.97;9.83;;;;;;;7.27;37.00;103138.28;4960817;28;20664;-50
2022/03/22 00:13:52;;;;;;;15.50;10.60;;;;;;;7.39;36.21;103138.88;4964548;28;20242;-50
2022/03/22 00:16:19;;;;;;;14.77;10.77;;;;;;;7.33;37.26;103130.72;4962300;28;20235;-50
2022/03/22 00:18:47;;;;;;;14.23;10.60;;;;;;;7.38;38.25;103144.94;4955806;28;20270;-50
2022/03/22 00:21:13;;;;;;;13.10;10.80;;;;;;;7.37;37.28;103138.81;4956128;28;20285;-49
2022/03/22 00:23:39;;;;;;;13.67;9.80;;;;;;;7.56;39.12;103145.88;4961755;28;20253;-49
2022/03/22 00:26:06;;;;;;;16.50;11.33;;;;;;;7.53;38.25;103135.25;4958599;28;20246;-49
2022/03/22 00:28:33;;;;;;;14.77;11.43;;;;;;;7.37;37.98;103132.66;4981152;28;20412;-49
2022/03/22 00:31:02;;;;;;;14.97;11.33;;;;;;;7.56;37.89;103134.50;4986997;28;20849;-50
2022/03/22 00:33:29;;;;;;;13.93;10.63;;;;;;;7.41;37.41;103137.25;4984193;28;20257;-49
2022/03/22 00:35:55;;;;;;;14.23;10.47;;;;;;;7.26;38.48;103129.50;4970870;28;20262;-50
2022/03/22 00:38:21;;;;;;;13.67;11.27;;;;;;;7.36;37.77;103136.13;4969768;28;20841;-49
2022/03/22 00:40:48;;;;;;;17.20;11.60;;;;;;;7.23;38.90;103133.69;4983575;28;20741;-50
2022/03/22 00:43:15;;;;;;;13.57;11.10;;;;;;;7.22;39.07;103126.69;4984807;28;20965;-49
2022/03/22 00:45:41;;;;;;;13.70;10.40;;;;;;;7.22;38.84;103126.69;4983068;28;20305;-50
2022/03/22 00:48:12;;;;;;;13.33;10.23;;;;;;;7.16;38.12;103128.16;4984438;28;20269;-50
2022/03/22 00:50:40;;;;;;;15.70;10.13;;;;;;;7.01;38.13;103124.75;4979618;28;20248;-50
2022/03/22 00:53:08;;;;;;;16.30;10.80;;;;;;;7.13;37.09;103129.72;5003277;28;20320;-50
2022/03/22 00:55:35;;;;;;;12.53;10.60;;;;;;;7.00;37.27;103130.78;4976746;28;20244;-50
2022/03/22 00:58:04;;;;;;;13.47;10.97;;;;;;;6.93;37.59;103129.56;4983969;28;20774;-50
2022/03/22 01:00:31;;;;;;;14.63;11.13;;;;;;;6.93;37.35;103128.69;4980231;28;20241;-49
2022/03/22 01:02:59;;;;;;;17.80;10.93;;;;;;;6.91;37.30;103126.00;4984226;28;20238;-50
2022/03/22 01:05:28;;;;;;;14.00;11.67;;;;;;;7.03;37.30;103123.13;4981190;28;20230;-50
2022/03/22 01:07:57;;;;;;;14.30;10.90;;;;;;;6.84;37.61;103118.63;4982235;28;20262;-50
2022/03/22 01:10:26;;;;;;;12.90;10.00;;;;;;;6.80;37.64;103118.41;4976167;28;20238;-50
2022/03/22 01:12:52;;;;;;;13.73;10.63;;;;;;;6.75;37.71;103122.50;4984926;28;20712;-50
2022/03/22 01:15:20;;;;;;;14.90;11.20;;;;;;;6.65;37.56;103111.56;4979768;28;20720;-49
2022/03/22 01:17:49;;;;;;;15.43;11.37;;;;;;;6.63;38.67;103115.81;4986749;28;20262;-49
2022/03/22 01:20:16;;;;;;;13.40;10.63;;;;;;;6.68;39.50;103110.84;4977971;28;20293;-49
2022/03/22 01:22:46;;;;;;;17.07;11.00;;;;;;;6.86;40.78;103113.50;4983514;28;20246;-49
2022/03/22 01:25:14;;;;;;;14.33;11.53;;;;;;;6.90;39.21;103107.63;4982279;28;20797;-49
2022/03/22 01:27:42;;;;;;;13.57;10.47;;;;;;;7.05;40.80;103103.19;4987211;28;20230;-49
2022/03/22 01:30:11;;;;;;;14.97;10.87;;;;;;;6.93;39.27;103106.06;4974157;28;20245;-50
2022/03/22 01:32:38;;;;;;;14.17;10.73;;;;;;;6.85;40.47;103111.72;4987230;28;20234;-50
2022/03/22 01:35:06;;;;;;;17.43;10.47;;;;;;;7.07;40.89;103101.56;4987637;28;20240;-50
2022/03/22 01:37:33;;;;;;;14.30;11.40;;;;;;;7.14;39.53;103100.16;4980025;28;20253;-50
2022/03/22 01:40:01;;;;;;;15.80;11.63;;;;;;;7.00;39.96;103099.47;4986722;28;20716;-50
2022/03/22 01:42:27;;;;;;;16.90;11.80;;;;;;;6.98;38.96;103095.84;4986989;28;20253;-50
2022/03/22 01:44:54;;;;;;;11.70;10.43;;;;;;;6.82;40.22;103088.06;4987275;28;20246;-50
2022/03/22 01:47:23;;;;;;;14.97;10.57;;;;;;;6.88;41.20;103089.28;4987483;28;20280;-51
2022/03/22 01:49:50;;;;;;;16.53;10.63;;;;;;;6.92;39.97;103085.13;4986163;28;20550;-50
2022/03/22 01:52:19;;;;;;;16.93;12.13;;;;;;;6.69;39.98;103087.41;4986702;28;20789;-50
2022/03/22 01:54:46;;;;;;;17.73;12.30;;;;;;;6.86;41.22;103071.72;4986406;28;20493;-50
2022/03/22 01:57:14;;;;;;;15.30;11.37;;;;;;;7.12;41.30;103084.41;4981793;28;20764;-50
2022/03/22 01:59:40;;;;;;;19.90;12.13;;;;;;;7.05;39.70;103077.06;4966135;28;20879;-50
2022/03/22 02:07:38;;;;;;;16.20;11.73;;;;;;;6.71;39.93;103073.56;4981632;28;20717;-49
2022/03/22 02:10:05;;;;;;;14.40;10.30;;;;;;;6.61;41.48;103083.50;4986866;28;20694;-49
2022/03/22 02:12:33;;;;;;;13.93;10.77;;;;;;;6.52;41.12;103083.00;4996067;28;20301;-49
2022/03/22 02:14:59;;;;;;;13.57;10.13;;;;;;;6.55;39.96;103079.66;4985872;28;20607;-50
2022/03/22 02:17:26;;;;;;;14.33;10.73;;;;;;;6.46;40.86;103077.47;4985458;28;20770;-51
2022/03/22 02:19:52;;;;;;;18.13;11.93;;;;;;;6.52;41.23;103072.56;4986438;28;20238;-49
2022/03/22 02:22:20;;;;;;;16.80;10.90;;;;;;;6.59;41.29;103074.69;4980924;28;20231;-49
2022/03/22 02:24:47;;;;;;;23.13;12.13;;;;;;;6.31;41.49;103079.25;4980068;28;20229;-49
2022/03/22 02:27:14;;;;;;;15.10;11.13;;;;;;;6.20;40.71;103073.44;4984297;28;20395;-51
2022/03/22 02:29:40;;;;;;;12.60;10.90;;;;;;;6.17;42.11;103079.38;4986462;28;20242;-50
2022/03/22 02:32:07;;;;;;;11.23;9.97;;;;;;;6.29;41.50;103067.84;4985405;28;20304;-49
2022/03/22 02:34:36;;;;;;;17.97;11.53;;;;;;;6.28;42.15;103066.91;4983034;28;20234;-49
2022/03/22 02:37:02;;;;;;;13.17;11.47;;;;;;;5.99;41.11;103075.78;4992459;28;20298;-49
2022/03/22 02:39:28;;;;;;;14.00;10.67;;;;;;;6.02;41.08;103075.94;4986576;28;20666;-50
2022/03/22 02:41:56;;;;;;;18.47;11.43;;;;;;;6.28;42.29;103071.25;4984845;28;20280;-50
2022/03/22 02:44:22;;;;;;;16.87;11.17;;;;;;;6.07;41.67;103065.75;4985197;28;20262;-50
2022/03/22 02:46:49;;;;;;;14.50;11.77;;;;;;;6.40;41.67;103066.69;4985694;28;20230;-50
2022/03/22 02:49:15;;;;;;;13.87;10.57;;;;;;;6.37;41.16;103067.44;4986212;28;20234;-50
2022/03/22 02:51:42;;;;;;;14.37;10.90;;;;;;;6.23;41.28;103063.19;4985241;28;20261;-49
2022/03/22 02:54:08;;;;;;;15.23;11.10;;;;;;;6.43;41.78;103082.53;4985227;28;20226;-49
2022/03/22 02:56:37;;;;;;;14.23;10.90;;;;;;;6.20;41.72;103078.66;4977887;28;20246;-50
2022/03/22 02:59:05;;;;;;;16.43;11.50;;;;;;;6.33;41.48;103075.00;4983159;28;20245;-49
2022/03/22 03:01:34;;;;;;;15.57;11.53;;;;;;;6.07;41.71;103077.13;4985398;28;20929;-50
2022/03/22 03:04:01;;;;;;;16.33;11.53;;;;;;;5.92;41.40;103081.41;4985918;28;20236;-50
2022/03/22 03:06:29;;;;;;;18.77;13.10;;;;;;;6.02;41.25;103073.34;4986084;28;20266;-49
2022/03/22 03:08:57;;;;;;;16.33;12.23;;;;;;;5.92;42.35;103073.59;4984876;28;20610;-50
2022/03/22 03:11:26;;;;;;;15.77;11.47;;;;;;;5.97;43.41;103070.47;4983550;28;20248;-50
2022/03/22 03:16:39;;;;;;;15.83;11.57;;;;;;;5.81;41.74;103079.94;4984161;28;20352;-49
2022/03/22 03:19:06;;;;;;;13.87;10.93;;;;;;;5.85;41.81;103076.69;4985289;28;20814;-50
2022/03/22 03:21:32;;;;;;;15.83;12.40;;;;;;;5.71;42.86;103078.50;4981206;28;20321;-49
2022/03/22 03:23:58;;;;;;;16.73;11.30;;;;;;;5.72;42.50;103083.81;4965825;28;20238;-49
2022/03/22 03:26:25;;;;;;;13.13;10.70;;;;;;;5.88;43.20;103085.56;4974358;28;20230;-50
2022/03/22 03:28:51;;;;;;;15.50;12.50;;;;;;;5.67;41.01;103076.53;4970430;28;20241;-48
2022/03/22 03:31:17;;;;;;;16.73;12.00;;;;;;;5.64;41.16;103077.25;4965649;28;20235;-49
2022/03/22 03:33:45;;;;;;;16.70;12.27;;;;;;;5.75;42.24;103080.47;4966095;28;20743;-51
2022/03/22 03:36:11;;;;;;;11.30;10.07;;;;;;;5.53;43.20;103080.97;4966137;28;20234;-48
2022/03/22 03:38:41;;;;;;;13.47;11.13;;;;;;;5.73;42.18;103088.22;4959075;28;20308;-50
2022/03/22 03:43:52;;;;;;;16.27;12.40;;;;;;;5.65;42.55;103085.97;4983990;28;20320;-53
2022/03/22 03:49:06;;;;;;;15.63;12.00;;;;;;;5.86;43.72;103091.50;5012289;28;20370;-53
2022/03/22 03:51:33;;;;;;;21.30;12.47;;;;;;;5.82;43.19;103090.44;5003533;28;20796;-54
2022/03/22 03:53:59;;;;;;;14.57;11.80;;;;;;;5.80;42.17;103086.84;5003115;28;20708;-54
2022/03/22 03:56:25;;;;;;;18.43;12.33;;;;;;;5.55;42.08;103083.69;4983744;28;20253;-53
2022/03/22 03:58:52;;;;;;;13.90;11.17;;;;;;;5.66;43.65;103088.69;4984041;28;20238;-54
2022/03/22 04:01:18;;;;;;;15.23;11.73;;;;;;;5.54;43.91;103087.97;4984874;28;20242;-53
2022/03/22 04:03:47;;;;;;;13.13;11.43;;;;;;;5.79;43.67;103090.28;4984735;28;20292;-53
2022/03/22 04:06:15;;;;;;;17.27;11.47;;;;;;;5.54;42.77;103095.78;4984043;28;20249;-54
2022/03/22 04:08:41;;;;;;;15.93;12.00;;;;;;;5.53;43.62;103096.59;4983455;28;20238;-54
2022/03/22 04:11:08;;;;;;;12.43;11.20;;;;;;;5.40;44.50;103094.97;4983281;28;20244;-53
2022/03/22 04:13:35;;;;;;;17.17;11.83;;;;;;;5.03;42.56;103094.53;4984875;28;20241;-53
2022/03/22 04:16:01;;;;;;;12.83;11.03;;;;;;;5.19;44.44;103091.13;4982919;28;20234;-54
2022/03/22 04:18:28;;;;;;;15.43;11.10;;;;;;;5.36;43.68;103097.34;4983073;28;20244;-53
2022/03/22 04:20:54;;;;;;;17.93;11.27;;;;;;;5.18;43.36;103092.84;4984264;28;20268;-53
2022/03/22 04:23:22;;;;;;;16.27;12.33;;;;;;;5.13;44.11;103094.28;4982707;28;20226;-53
2022/03/22 04:25:48;;;;;;;16.37;12.23;;;;;;;5.15;44.00;103097.84;4982436;28;20233;-54
2022/03/22 04:33:54;;;;;;;15.70;11.73;;;;;;;5.06;44.03;103099.94;4983652;28;20468;-54
2022/03/22 04:36:21;;;;;;;13.73;11.23;;;;;;;4.94;44.98;103105.28;4987386;28;20712;-56
2022/03/22 04:38:48;;;;;;;15.13;11.40;;;;;;;5.33;44.85;103099.75;4996232;28;20263;-54
2022/03/22 04:41:15;;;;;;;15.53;11.30;;;;;;;5.16;44.03;103104.88;5002451;28;20264;-53
2022/03/22 04:43:41;;;;;;;16.73;12.00;;;;;;;4.85;44.82;103111.66;4999623;28;20241;-53
2022/03/22 04:46:08;;;;;;;12.07;10.20;;;;;;;5.00;44.12;103109.97;5003762;28;20233;-54
2022/03/22 04:48:36;;;;;;;16.67;12.40;;;;;;;5.13;44.35;103107.31;4998097;28;20315;-53
2022/03/22 04:56:45;;;;;;;18.70;11.23;;;;;;;5.08;44.11;103111.31;4987052;28;20249;-54
2022/03/22 04:59:12;;;;;;;18.50;12.67;;;;;;;5.06;45.37;103112.97;4988703;28;20234;-54
2022/03/22 05:01:39;;;;;;;15.67;10.90;;;;;;;5.10;45.27;103117.53;4988472;28;20249;-53
2022/03/22 05:04:05;;;;;;;17.43;11.47;;;;;;;4.91;44.39;103117.22;4989257;28;20237;-54
2022/03/22 05:06:35;;;;;;;15.27;11.47;;;;;;;5.05;44.11;103111.13;5003009;28;20221;-53
2022/03/22 05:09:02;;;;;;;13.13;11.73;;;;;;;4.94;44.08;103120.00;5006607;28;20248;-53
2022/03/22 05:11:28;;;;;;;15.87;12.07;;;;;;;4.94;45.35;103120.00;5009648;28;20255;-53
2022/03/22 05:13:56;;;;;;;18.23;12.00;;;;;;;4.96;45.06;103116.72;4992652;28;20242;-54
2022/03/22 05:16:23;;;;;;;12.57;11.10;;;;;;;5.25;44.57;103115.81;4997962;28;20288;-57
2022/03/22 05:18:50;;;;;;;16.13;12.03;;;;;;;5.22;44.30;103110.44;4988981;28;20234;-59
2022/03/22 05:21:17;;;;;;;14.60;11.93;;;;;;;5.28;46.07;103119.44;4987577;28;20233;-53
2022/03/22 05:23:44;;;;;;;17.30;12.20;;;;;;;5.19;43.60;103115.47;4988259;28;20226;-53
2022/03/22 05:26:11;;;;;;;19.13;12.67;;;;;;;5.09;43.67;103126.16;4987493;28;20787;-57
2022/03/22 05:28:38;;;;;;;19.43;12.20;;;;;;;5.73;45.24;103119.50;4987855;28;20750;-53
2022/03/22 05:31:06;;;;;;;16.03;11.93;;;;;;;5.54;45.00;103123.56;4974600;28;20241;-55
2022/03/22 05:33:32;;;;;;;14.83;11.97;;;;;;;5.90;44.58;103124.78;4989516;28;20242;-54
2022/03/22 05:35:59;;;;;;;19.67;13.43;;;;;;;5.48;44.00;103122.41;4988263;28;20226;-55
2022/03/22 05:38:26;;;;;;;16.80;12.27;;;;;;;5.34;43.90;103125.00;4988135;28;20256;-55
2022/03/22 05:40:52;;;;;;;17.13;12.30;;;;;;;5.38;45.01;103124.38;4981429;28;20247;-53
2022/03/22 05:43:19;;;;;;;15.83;13.27;;;;;;;5.29;43.96;103126.44;4982428;28;20237;-54
2022/03/22 05:45:48;;;;;;;16.37;12.20;;;;;;;5.27;44.45;103126.34;4995466;28;20292;-54
2022/03/22 05:48:16;;;;;;;17.47;12.37;;;;;;;5.13;43.60;103137.66;5004540;28;20233;-55
2022/03/22 05:50:43;;;;;;;15.33;11.03;;;;;;;5.17;45.76;103126.63;4989853;28;20641;-54
2022/03/22 05:53:10;;;;;;;23.90;12.03;;;;;;;5.50;44.58;103135.50;4991145;28;20240;-55
2022/03/22 05:55:37;;;;;;;16.90;13.03;;;;;;;5.54;44.54;103131.38;5005741;28;20687;-53
2022/03/22 05:58:03;;;;;;;17.67;12.97;;;;;;;5.31;43.68;103135.25;4996842;28;20792;-53
2022/03/22 06:00:30;;;;;;;17.73;12.27;;;;;;;5.48;44.86;103142.34;5002303;28;20245;-53
2022/03/22 06:02:57;;;;;;;16.83;12.97;;;;;;;5.57;43.82;103139.38;5002534;28;20312;-53
2022/03/22 06:05:25;;;;;;;20.57;12.93;;;;;;;5.51;43.78;103142.53;5005781;28;20229;-53
2022/03/22 06:07:52;;;;;;;25.80;13.00;;;;;;;5.36;43.89;103144.22;5005817;28;20608;-54
2022/03/22 06:10:18;;;;;;;16.93;13.13;;;;;;;5.31;43.76;103140.47;5004944;28;20229;-53
2022/03/22 06:12:47;;;;;;;14.70;12.10;;;;;;;5.19;44.05;103151.91;5021042;28;20265;-53
2022/03/22 06:15:17;;;;;;;20.80;13.40;;;;;;;5.26;42.92;103148.91;4999137;28;20307;-53
2022/03/22 06:17:48;;;;;;;12.90;11.17;;;;;;;5.10;43.15;103155.69;5004087;28;20241;-54
2022/03/22 06:20:15;;;;;;;18.13;13.03;;;;;;;5.09;43.27;103149.59;4986359;28;20242;-53
2022/03/22 06:22:44;;;;;;;16.07;12.53;;;;;;;5.08;43.32;103150.38;4985754;28;20238;-53
2022/03/22 06:25:10;;;;;;;14.20;11.27;;;;;;;5.24;42.68;103150.50;4985189;28;20230;-53
2022/03/22 06:27:37;;;;;;;16.97;11.90;;;;;;;5.17;41.62;103156.16;4990055;28;20415;-52
2022/03/22 06:30:04;;;;;;;15.60;12.23;;;;;;;5.06;42.47;103159.81;4985726;28;20708;-54
2022/03/22 06:32:31;;;;;;;18.60;14.57;;;;;;;5.23;42.20;103159.13;4984790;28;20237;-53
2022/03/22 06:34:57;;;;;;;16.30;12.43;;;;;;;5.26;41.36;103161.94;4966056;28;20248;-54
2022/03/22 06:37:26;;;;;;;17.17;13.90;;;;;;;5.21;41.32;103168.53;4976991;28;20233;-53
2022/03/22 06:39:54;;;;;;;16.50;12.63;;;;;;;5.33;42.90;103149.25;4983688;28;20233;-54
2022/03/22 06:42:21;;;;;;;18.73;12.97;;;;;;;5.48;41.18;103156.28;4966281;28;20305;-53
2022/03/22 06:44:49;;;;;;;17.33;12.27;;;;;;;5.42;40.94;103157.63;4985234;28;20241;-54
2022/03/22 06:47:18;;;;;;;20.00;12.43;;;;;;;5.39;41.69;103154.81;4984971;28;20262;-54
2022/03/22 06:49:44;;;;;;;16.87;13.20;;;;;;;5.50;41.10;103164.16;4982537;28;20245;-53
2022/03/22 06:52:10;;;;;;;19.70;12.73;;;;;;;5.61;41.85;103160.47;4992759;28;20298;-53
2022/03/22 06:54:37;;;;;;;13.87;12.13;;;;;;;5.64;41.67;103160.66;5001751;28;20237;-54
2022/03/22 06:57:05;;;;;;;18.00;12.03;;;;;;;5.75;40.31;103161.28;5003483;28;20232;-53
2022/03/22 06:59:35;;;;;;;15.37;12.83;;;;;;;5.81;40.23;103165.94;4992565;28;20238;-54
2022/03/22 07:02:01;;;;;;;14.60;11.97;;;;;;;5.88;39.92;103168.09;5003970;28;20268;-54
2022/03/22 07:04:28;;;;;;;17.47;12.73;;;;;;;5.92;41.01;103167.47;4999701;28;20307;-53
2022/03/22 07:06:54;;;;;;;17.87;12.90;;;;;;;5.98;40.30;103165.25;5015431;28;20237;-54
2022/03/22 07:09:22;;;;;;;15.60;12.40;;;;;;;6.05;39.60;103158.66;4999227;28;20233;-54
2022/03/22 07:11:49;;;;;;;18.03;12.93;;;;;;;6.08;39.81;103167.56;5012150;28;20914;-53
2022/03/22 07:14:17;;;;;;;15.00;12.07;;;;;;;6.25;40.76;103170.19;5005272;28;20236;-54
2022/03/22 07:16:47;;;;;;;18.17;12.23;;;;;;;6.27;39.35;103173.81;4992857;28;20237;-54
2022/03/22 07:19:13;;;;;;;13.20;11.80;;;;;;;6.41;38.95;103170.25;4988360;28;20240;-54
2022/03/22 07:21:40;;;;;;;19.83;12.50;;;;;;;6.42;38.57;103174.66;4989081;28;20293;-54
2022/03/22 07:24:07;;;;;;;18.03;13.03;;;;;;;6.52;38.28;103170.84;4986121;28;20234;-52
2022/03/22 07:26:33;;;;;;;22.70;12.90;;;;;;;6.73;37.88;103172.00;5003134;28;20320;-53
2022/03/22 07:29:00;;;;;;;16.60;13.03;;;;;;;6.82;39.50;103175.13;5003822;28;20707;-53
2022/03/22 07:31:28;;;;;;;17.60;12.43;;;;;;;6.90;37.22;103171.19;5005805;28;20287;-53
2022/03/22 07:33:54;;;;;;;19.43;13.10;;;;;;;7.05;36.87;103176.31;4997796;28;20727;-55
2022/03/22 07:36:21;;;;;;;17.67;12.87;;;;;;;6.96;37.02;103178.47;4983096;28;20325;-53
2022/03/22 07:38:47;;;;;;;15.73;12.57;;;;;;;7.04;36.93;103169.31;4981852;28;20320;-54
2022/03/22 07:41:14;;;;;;;16.33;11.67;;;;;;;7.22;36.41;103181.53;4992602;28;20242;-55
2022/03/22 07:43:41;;;;;;;16.53;11.73;;;;;;;7.42;35.97;103175.63;4999474;28;20238;-53
2022/03/22 07:46:07;;;;;;;17.33;13.30;;;;;;;7.33;35.95;103172.53;5013604;28;20233;-54
2022/03/22 07:48:35;;;;;;;16.57;12.10;;;;;;;7.43;35.62;103171.31;5001024;28;20229;-54
2022/03/22 07:53:46;;;;;;;22.37;12.60;;;;;;;7.81;36.19;103168.00;5005330;28;20236;-54
2022/03/22 07:56:13;;;;;;;20.40;12.63;;;;;;;8.05;35.24;103177.06;5004135;28;20291;-54
2022/03/22 07:58:39;;;;;;;19.70;12.70;;;;;;;7.91;36.22;103165.03;5000332;28;20241;-54
2022/03/22 08:01:06;;;;;;;16.37;12.57;;;;;;;8.16;35.30;103167.09;5003783;28;20237;-56
2022/03/22 08:03:32;;;;;;;14.90;12.37;;;;;;;8.45;33.50;103178.97;5004774;28;20324;-56
2022/03/22 08:06:00;;;;;;;15.37;12.20;;;;;;;8.62;33.22;103178.88;4984816;28;20276;-56
2022/03/22 08:08:27;;;;;;;17.93;12.83;;;;;;;8.71;34.26;103174.97;4986518;28;20230;-59
2022/03/22 08:10:53;;;;;;;16.13;12.47;;;;;;;8.85;32.92;103183.47;5004609;28;20256;-56
2022/03/22 08:13:20;;;;;;;16.50;11.73;;;;;;;8.72;32.11;103179.38;4996085;28;20245;-55
2022/03/22 08:15:46;;;;;;;17.10;12.30;;;;;;;8.86;32.00;103173.88;4983151;28;20643;-55
2022/03/22 08:18:13;;;;;;;12.03;10.83;;;;;;;9.04;32.17;103175.59;4983140;28;20241;-57
2022/03/22 08:20:39;;;;;;;16.60;12.23;;;;;;;9.36;31.40;103176.09;4982205;28;20597;-55
2022/03/22 08:23:09;;;;;;;18.10;12.77;;;;;;;9.52;31.01;103175.03;4984212;28;20257;-55
2022/03/22 08:25:37;;;;;;;12.50;11.17;;;;;;;9.50;30.88;103172.34;4979392;28;20727;-55
2022/03/22 08:28:05;;;;;;;13.37;10.83;;;;;;;9.57;31.12;103171.78;4996814;28;20252;-55
2022/03/22 08:30:32;;;;;;;12.63;11.40;;;;;;;9.77;30.92;103171.72;4986406;28;20245;-56
2022/03/22 08:33:07;;;;;;;21.27;12.33;;;;;;;9.83;30.85;103171.06;4994385;28;20327;-55
2022/03/22 08:35:34;;;;;;;13.77;11.40;;;;;;;9.94;30.64;103175.94;4990514;28;20718;-56
2022/03/22 08:38:01;;;;;;;15.07;11.50;;;;;;;10.08;31.17;103167.72;4985863;28;20241;-54
2022/03/22 08:40:28;;;;;;;14.50;11.63;;;;;;;10.12;30.34;103169.66;4988674;28;20233;-57
2022/03/22 08:42:57;;;;;;;13.60;11.77;;;;;;;10.30;30.83;103173.03;5004636;28;20233;-56
2022/03/22 08:45:25;;;;;;;19.07;12.07;;;;;;;10.17;29.40;103165.44;4992535;28;20253;-56
2022/03/22 08:47:53;;;;;;;14.97;11.73;;;;;;;10.20;29.26;103165.56;5011938;28;20283;-56
2022/03/22 08:50:23;;;;;;;13.67;12.13;;;;;;;10.24;30.57;103170.13;4998334;28;20239;-55
2022/03/22 08:52:50;;;;;;;14.40;11.30;;;;;;;10.49;29.31;103161.50;4988895;28;20321;-56
2022/03/22 08:55:19;;;;;;;14.70;11.47;;;;;;;10.37;29.98;103164.53;5003056;28;20300;-55
2022/03/22 08:57:48;;;;;;;16.37;11.33;;;;;;;10.37;30.90;103164.53;5009379;28;20237;-56
2022/03/22 09:00:17;;;;;;;15.10;11.83;;;;;;;10.20;30.23;103155.97;5006275;28;20244;-56
2022/03/22 09:02:44;;;;;;;15.13;12.07;;;;;;;10.44;29.89;103160.44;4999281;28;20344;-56
2022/03/22 09:07:57;;;;;;;15.23;12.10;;;;;;;10.65;29.40;103162.97;4986317;28;20323;-55
2022/03/22 09:10:24;;;;;;;15.80;11.90;;;;;;;10.76;29.17;103161.66;4987930;28;20225;-56
2022/03/22 09:12:53;;;;;;;13.57;12.13;;;;;;;11.05;30.85;103153.94;4995939;28;20320;-56
2022/03/22 09:15:20;;;;;;;14.77;12.60;;;;;;;11.24;30.28;103156.38;4994129;28;20954;-55
2022/03/22 09:17:47;;;;;;;17.53;12.10;;;;;;;11.32;29.35;103154.91;4999002;28;20305;-56
2022/03/22 09:20:14;;;;;;;15.83;11.70;;;;;;;11.38;29.81;103155.13;4996858;28;20233;-55
2022/03/22 09:22:42;;;;;;;12.73;11.05;;;;;;;11.38;30.07;103149.88;4985023;28;20242;-56
2022/03/22 09:25:10;;;;;;;21.27;13.73;;;;;;;11.80;28.94;103149.53;4987287;28;20458;-54
2022/03/22 09:27:36;;;;;;;12.60;11.23;;;;;;;11.74;28.66;103148.44;5003761;28;20726;-54
2022/03/22 09:30:05;;;;;;;18.13;12.27;;;;;;;11.99;27.96;103139.63;5000969;28;20719;-54
2022/03/22 09:32:32;;;;;;;15.50;11.18;;;;;;;11.90;27.69;103143.75;5003798;28;20283;-57
2022/03/22 09:34:59;;;;;;;12.95;10.70;;;;;;;12.34;27.83;103138.97;5003333;28;20233;-59
2022/03/22 09:37:26;;;;;;;13.35;11.05;;;;;;;12.41;27.51;103146.19;4987657;28;20226;-54
2022/03/22 09:39:52;;;;;;;13.02;11.07;;;;;;;12.56;27.64;103139.59;4986803;28;20272;-54
2022/03/22 09:42:19;;;;;;;15.13;11.48;;;;;;;12.31;28.46;103133.59;4998568;23;20246;-49
2022/03/22 09:44:49;;;;;;;15.65;11.93;;;;;;;12.49;28.72;103135.00;5002711;28;20244;-50
2022/03/22 09:47:17;;;;;;;13.13;11.73;;;;;;;12.48;27.18;103126.19;5001435;28;20248;-49
2022/03/22 09:49:44;;;;;;;12.00;9.90;;;;;;;12.69;26.85;103128.56;4986176;28;20244;-48
2022/03/22 09:52:11;;;;;;;17.90;11.80;;;;;;;12.90;26.46;103126.53;4992760;28;20316;-50
2022/03/22 09:54:39;;;;;;;13.57;10.57;;;;;;;12.85;27.48;103128.16;4999671;28;20292;-49
2022/03/22 09:57:07;;;;;;;13.57;11.07;;;;;;;13.07;26.09;103128.75;4984461;28;20226;-49
2022/03/22 09:59:33;;;;;;;15.20;11.00;;;;;;;12.97;25.55;103122.34;4984922;28;20430;-49
2022/03/22 10:02:00;;;;;;;12.65;11.55;;;;;;;13.06;25.78;103121.72;4992991;28;20421;-51
2022/03/22 10:04:36;;;;;;;16.98;10.63;;;;;;;13.13;25.70;103126.28;5005946;28;20283;-48
2022/03/22 10:07:05;;;;;;;11.18;9.98;;;;;;;13.22;25.28;103115.97;5005608;28;20235;-48
2022/03/22 10:09:33;;;;;;;13.43;10.20;;;;;;;13.11;24.93;103125.34;4990616;28;20234;-50
2022/03/22 10:11:59;;;;;;;10.73;9.70;;;;;;;13.18;25.13;103119.38;4991180;28;20237;-48
2022/03/22 10:14:33;;;;;;;12.15;10.95;;;;;;;13.04;24.92;103126.03;4986361;28;20296;-48
2022/03/22 10:17:08;;;;;;;15.18;12.30;;;;;;;12.96;24.90;103119.66;4983736;28;20296;-49
2022/03/22 10:19:42;;;;;;;12.13;10.77;;;;;;;12.87;24.37;103112.38;4997523;28;20296;-50
2022/03/22 10:22:10;;;;;;;15.98;9.65;;;;;;;12.94;24.18;103109.06;4991348;28;20240;-50
2022/03/22 10:24:42;;;;;;;10.82;9.68;;;;;;;13.09;24.62;103105.94;5002225;28;20242;-50
2022/03/22 10:27:19;;;;;;;13.88;10.27;;;;;;;12.89;25.04;103106.31;5004373;28;20615;-50
2022/03/22 10:29:46;;;;;;;10.93;9.77;;;;;;;12.70;26.45;103101.34;4996188;28;20612;-50
2022/03/22 10:32:12;;;;;;;11.13;9.98;;;;;;;12.69;28.25;103101.31;5005613;28;20233;-49
2022/03/22 10:34:41;;;;;;;11.77;10.05;;;;;;;12.75;25.46;103094.50;5006052;28;20356;-49
2022/03/22 10:37:08;;;;;;;13.77;9.63;;;;;;;12.94;25.25;103092.34;5004944;28;20226;-50
2022/03/22 10:39:35;;;;;;;13.07;9.60;;;;;;;12.98;24.60;103092.47;5004471;28;20275;-51
2022/03/22 10:42:06;;;;;;;10.00;8.48;;;;;;;12.96;25.20;103099.47;5001103;28;20765;-48
2022/03/22 10:44:38;;;;;;;11.90;9.55;;;;;;;12.97;25.82;103093.31;5006161;28;20233;-48
2022/03/22 10:47:07;;;;;;;10.27;8.52;;;;;;;13.21;24.86;103085.16;5000972;28;20706;-48
2022/03/22 10:49:33;;;;;;;12.57;9.75;;;;;;;13.41;24.44;103080.44;4996429;28;20268;-50
2022/03/22 10:52:01;;;;;;;11.88;8.73;;;;;;;13.32;24.76;103083.72;4998013;28;20233;-50
2022/03/22 10:54:28;;;;;;;10.13;9.07;;;;;;;13.40;23.34;103085.66;4987884;28;20272;-48
2022/03/22 10:56:55;;;;;;;11.35;8.30;;;;;;;13.63;22.07;103078.31;4987662;28;20234;-49
2022/03/22 10:59:24;;;;;;;9.57;8.55;;;;;;;13.66;22.44;103081.03;4984228;28;20267;-49
2022/03/22 11:01:52;;;;;;;11.57;10.35;;;;;;;13.88;22.15;103079.78;4987025;28;21063;-49
2022/03/22 11:04:20;;;;;;;12.68;9.98;;;;;;;13.80;23.80;103083.16;4987019;28;20736;-50
2022/03/22 11:06:47;;;;;;;12.18;10.20;;;;;;;13.67;23.23;103078.44;4983903;28;20344;-50
2022/03/22 11:09:16;;;;;;;11.25;8.98;;;;;;;13.74;23.42;103068.91;5002926;28;20232;-48
2022/03/22 11:11:43;;;;;;;10.25;8.80;;;;;;;13.93;22.59;103072.84;5002336;28;20238;-49
2022/03/22 11:14:12;;;;;;;13.45;9.35;;;;;;;14.01;23.13;103071.28;4985826;28;20782;-49
2022/03/22 11:16:39;;;;;;;13.57;9.15;;;;;;;14.30;22.02;103064.88;4980145;28;20288;-49
2022/03/22 11:19:06;;;;;;;10.75;9.68;;;;;;;14.24;23.50;103058.56;4986633;28;20237;-51
2022/03/22 11:21:33;;;;;;;12.15;10.85;;;;;;;14.04;22.24;103064.34;4983900;28;20647;-51
2022/03/22 11:24:07;;;;;;;9.50;8.50;;;;;;;14.29;22.01;103055.19;4984007;28;20229;-48
2022/03/22 11:26:41;;;;;;;11.35;9.82;;;;;;;14.44;21.34;103045.78;4990760;28;20316;-49
2022/03/22 11:29:10;;;;;;;11.05;9.90;;;;;;;14.27;22.00;103051.59;5004521;28;20267;-49
2022/03/22 11:31:38;;;;;;;9.60;8.68;;;;;;;14.56;22.31;103046.94;4999094;28;20235;-48
2022/03/22 11:34:11;;;;;;;10.98;9.77;;;;;;;14.76;21.88;103047.31;4999097;28;20572;-49
2022/03/22 11:36:43;;;;;;;10.95;8.73;;;;;;;14.78;22.73;103050.00;4995150;28;20319;-50
2022/03/22 11:39:10;;;;;;;9.95;8.95;;;;;;;14.95;22.72;103039.72;4984399;28;20269;-50
2022/03/22 11:44:29;;;;;;;10.00;9.00;;;;;;;15.03;22.88;103043.41;4988028;28;20612;-52
2022/03/22 11:47:07;;;;;;;9.98;8.98;;;;;;;15.18;21.02;103041.00;5002089;28;20264;-50
2022/03/22 11:49:49;;;;;;;11.45;8.77;;;;;;;15.26;20.96;103031.44;4996909;28;20308;-54
2022/03/22 11:52:17;;;;;;;11.35;8.88;;;;;;;14.90;21.45;103036.09;4997498;28;20809;-50